createdAt,value
2023-03-23T15:58:14.894Z,97975.00
2023-03-23T16:01:08.630Z,97970.00
2023-03-23T16:04:04.723Z,97979.00
2023-03-23T16:06:55.950Z,97976.00
2023-03-23T16:09:44.699Z,97979.00
2023-03-23T16:12:32.275Z,97981.00
2023-03-23T16:15:20.624Z,97979.00
2023-03-23T16:18:10.886Z,97988.00
2023-03-23T16:20:58.456Z,97981.00
2023-03-23T16:23:46.556Z,97984.00
2023-03-23T16:26:37.728Z,97996.00
2023-03-23T16:29:46.687Z,97991.00
2023-03-23T16:35:21.116Z,97989.00
2023-03-23T16:38:16.382Z,97994.00
2023-03-23T16:41:03.993Z,97990.00
2023-03-23T16:43:52.256Z,98000.00
2023-03-23T16:46:39.740Z,97993.00
2023-03-23T16:49:27.487Z,98003.00
2023-03-23T16:52:15.036Z,97996.00
2023-03-23T16:55:02.587Z,98004.00
2023-03-23T16:57:50.368Z,98006.00
2023-03-23T17:00:38.942Z,98012.00
2023-03-23T17:03:26.735Z,97998.00
2023-03-23T17:06:14.626Z,98004.00
2023-03-23T17:09:02.240Z,98007.00
2023-03-23T17:11:49.875Z,97998.00
2023-03-23T17:14:40.272Z,97996.00
2023-03-23T17:17:30.861Z,97993.00
2023-03-23T17:20:19.549Z,98001.00
2023-03-23T17:23:07.695Z,97993.00
2023-03-23T17:25:55.909Z,98003.00
2023-03-23T17:28:43.654Z,98004.00
2023-03-23T17:31:31.312Z,98016.00
2023-03-23T17:34:19.833Z,98004.00
2023-03-23T17:37:07.997Z,98009.00
2023-03-23T17:39:55.570Z,98012.00
2023-03-23T17:42:43.092Z,98011.00
2023-03-23T17:45:30.821Z,98008.00
2023-03-23T17:48:18.447Z,98017.00
2023-03-23T17:51:09.172Z,98016.00
2023-03-23T17:53:58.549Z,98024.00
2023-03-23T17:56:46.223Z,98026.00
2023-03-23T17:59:33.780Z,98024.00
2023-03-23T18:02:21.560Z,98029.00
2023-03-23T18:05:09.927Z,98035.00
2023-03-23T18:07:57.407Z,98029.00
2023-03-23T18:10:45.331Z,98036.00
2023-03-23T18:13:36.219Z,98040.00
2023-03-23T18:16:23.964Z,98044.00
2023-03-23T18:19:11.454Z,98044.00
2023-03-23T18:22:01.536Z,98046.00
2023-03-23T18:24:49.004Z,98048.00
2023-03-23T18:27:36.601Z,98056.00
2023-03-23T18:30:26.959Z,98047.00
2023-03-23T18:33:20.207Z,98049.00
2023-03-23T18:36:09.530Z,98044.00
2023-03-23T18:38:58.137Z,98047.00
2023-03-23T18:41:45.720Z,98044.00
2023-03-23T18:44:33.833Z,98044.00
2023-03-23T18:47:21.630Z,98047.00
2023-03-23T18:50:11.075Z,98049.00
2023-03-23T18:52:58.744Z,98058.00
2023-03-23T18:55:47.924Z,98068.00
2023-03-23T18:58:36.578Z,98067.00
2023-03-23T19:01:24.141Z,98070.00
2023-03-23T19:04:13.638Z,98072.00
2023-03-23T19:07:02.424Z,98075.00
2023-03-23T19:09:50.035Z,98072.00
2023-03-23T19:12:37.540Z,98073.00
2023-03-23T19:15:25.078Z,98081.00
2023-03-23T19:18:12.887Z,98083.00
2023-03-23T19:23:51.404Z,98081.00
2023-03-23T19:26:43.048Z,98073.00
2023-03-23T19:29:30.578Z,98074.00
2023-03-23T19:32:18.575Z,98076.00
2023-03-23T19:35:07.124Z,98079.00
2023-03-23T19:37:54.781Z,98087.00
2023-03-23T19:40:49.129Z,98089.00
2023-03-23T19:43:37.870Z,98085.00
2023-03-23T19:46:28.328Z,98081.00
2023-03-23T19:49:25.186Z,98091.00
2023-03-23T19:52:14.546Z,98090.00
2023-03-23T19:55:04.589Z,98088.00
2023-03-23T19:57:52.170Z,98095.00
2023-03-23T20:00:40.262Z,98097.00
2023-03-23T20:03:28.404Z,98096.00
2023-03-23T20:06:19.440Z,98094.00
2023-03-23T20:09:07.725Z,98104.00
2023-03-23T20:11:55.447Z,98099.00
2023-03-23T20:14:45.513Z,98107.00
2023-03-23T20:17:33.753Z,98099.00
2023-03-23T20:20:21.390Z,98102.00
2023-03-23T20:23:08.880Z,98098.00
2023-03-23T20:26:04.262Z,98098.00
2023-03-23T20:28:52.519Z,98105.00
2023-03-23T20:31:45.223Z,98099.00
2023-03-23T20:34:33.020Z,98103.00
2023-03-23T20:37:21.005Z,98107.00
2023-03-23T20:40:14.387Z,98106.00
2023-03-23T20:43:03.788Z,98108.00
2023-03-23T20:45:51.503Z,98110.00
2023-03-23T20:48:40.357Z,98112.00
2023-03-23T20:51:28.279Z,98109.00
2023-03-23T20:54:17.842Z,98119.00
2023-03-23T20:57:05.561Z,98120.00
2023-03-23T20:59:53.661Z,98115.00
2023-03-23T21:02:42.361Z,98114.00
2023-03-23T21:05:30.038Z,98107.00
2023-03-23T21:08:18.959Z,98105.00
2023-03-23T21:11:09.766Z,98097.00
2023-03-23T21:13:57.357Z,98098.00
2023-03-23T21:16:45.440Z,98096.00
2023-03-23T21:19:34.262Z,98106.00
2023-03-23T21:22:22.990Z,98107.00
2023-03-23T21:25:10.631Z,98099.00
2023-03-23T21:27:58.169Z,98105.00
2023-03-23T21:30:48.371Z,98098.00
2023-03-23T21:33:36.087Z,98108.00
2023-03-23T21:36:24.814Z,98104.00
2023-03-23T21:39:12.315Z,98104.00
2023-03-23T21:42:00.159Z,98103.00
2023-03-23T21:44:48.751Z,98106.00
2023-03-23T21:47:38.449Z,98106.00
2023-03-23T21:50:26.148Z,98109.00
2023-03-23T21:53:18.205Z,98110.00
2023-03-23T21:56:10.322Z,98105.00
2023-03-23T21:58:58.420Z,98099.00
2023-03-23T22:01:46.296Z,98092.00
2023-03-23T22:04:35.112Z,98092.00
2023-03-23T22:07:24.120Z,98092.00
2023-03-23T22:10:14.879Z,98079.00
2023-03-23T22:13:02.393Z,98091.00
2023-03-23T22:15:52.129Z,98087.00
2023-03-23T22:18:43.522Z,98090.00
2023-03-23T22:21:32.045Z,98083.00
2023-03-23T22:24:19.731Z,98076.00
2023-03-23T22:27:07.974Z,98074.00
2023-03-23T22:29:55.840Z,98073.00
2023-03-23T22:32:43.771Z,98079.00
2023-03-23T22:35:33.843Z,98076.00
2023-03-23T22:38:22.610Z,98073.00
2023-03-23T22:41:25.228Z,98089.00
2023-03-23T22:44:18.386Z,98087.00
2023-03-23T22:47:06.738Z,98081.00
2023-03-23T22:49:54.380Z,98084.00
2023-03-23T22:52:42.013Z,98084.00
2023-03-23T22:55:29.818Z,98084.00
2023-03-23T22:58:20.265Z,98087.00
2023-03-23T23:01:14.270Z,98087.00
2023-03-23T23:04:03.011Z,98083.00
2023-03-23T23:06:55.457Z,98076.00
2023-03-23T23:09:51.604Z,98074.00
2023-03-23T23:12:39.352Z,98074.00
2023-03-23T23:15:27.863Z,98059.00
2023-03-23T23:18:16.437Z,98065.00
2023-03-23T23:21:15.605Z,98060.00
2023-03-23T23:24:07.811Z,98063.00
2023-03-23T23:26:55.861Z,98058.00
2023-03-23T23:29:44.872Z,98064.00
2023-03-23T23:32:34.112Z,98060.00
2023-03-23T23:35:22.242Z,98061.00
2023-03-23T23:38:12.757Z,98049.00
2023-03-23T23:41:00.393Z,98056.00
2023-03-23T23:43:48.117Z,98053.00
2023-03-23T23:46:35.742Z,98052.00
2023-03-23T23:49:28.771Z,98052.00
2023-03-23T23:52:17.004Z,98043.00
2023-03-23T23:55:08.059Z,98039.00
2023-03-23T23:57:56.238Z,98035.00
